createdAt,value
2022-08-07T00:00:03.006Z,78.25
2022-08-07T00:02:35.535Z,78.45
2022-08-07T00:02:36.454Z,78.35
2022-08-07T00:03:03.679Z,78.25
2022-08-07T00:04:03.387Z,78.45
2022-08-07T00:05:03.900Z,78.05
2022-08-07T00:06:02.601Z,78.25
2022-08-07T00:07:05.026Z,78.49
2022-08-07T00:08:02.336Z,78.59
2022-08-07T00:09:16.254Z,78.69
2022-08-07T00:10:25.721Z,78.69
2022-08-07T00:11:29.944Z,78.69
2022-08-07T00:12:03.140Z,78.49
2022-08-07T00:13:09.567Z,78.69
2022-08-07T00:14:03.136Z,78.49
2022-08-07T00:15:02.444Z,79.00
2022-08-07T00:16:02.125Z,78.89
2022-08-07T00:17:02.692Z,79.10
2022-08-07T00:18:02.106Z,79.20
2022-08-07T00:19:02.345Z,78.89
2022-08-07T00:20:03.215Z,79.10
2022-08-07T00:21:56.656Z,80.01
2022-08-07T00:22:03.576Z,80.11
2022-08-07T00:23:02.226Z,80.15
2022-08-07T00:24:01.972Z,79.74
2022-08-07T00:25:02.769Z,79.94
2022-08-07T00:26:13.300Z,80.15
2022-08-07T00:27:07.310Z,80.05
2022-08-07T00:28:03.185Z,79.94
2022-08-07T00:29:01.932Z,80.05
2022-08-07T00:30:02.176Z,80.55
2022-08-07T00:31:22.430Z,80.65
2022-08-07T00:32:02.161Z,80.76
2022-08-07T00:33:02.234Z,80.76
2022-08-07T00:34:02.301Z,80.86
2022-08-07T00:35:02.110Z,80.76
2022-08-07T00:36:02.825Z,80.65
2022-08-07T00:37:02.106Z,80.55
2022-08-07T00:38:01.857Z,80.55
2022-08-07T00:39:02.163Z,80.76
2022-08-07T00:40:01.855Z,80.79
2022-08-07T00:41:22.095Z,80.90
2022-08-07T00:42:05.449Z,80.79
2022-08-07T00:43:02.004Z,80.49
2022-08-07T00:44:02.954Z,80.90
2022-08-07T00:45:01.991Z,81.10
2022-08-07T00:46:02.731Z,81.10
2022-08-07T00:47:01.972Z,81.10
2022-08-07T00:48:09.358Z,81.20
2022-08-07T00:49:03.361Z,81.30
2022-08-07T00:50:21.326Z,81.40
2022-08-07T00:51:22.965Z,81.50
2022-08-07T00:52:02.725Z,81.60
2022-08-07T00:53:01.942Z,81.60
2022-08-07T00:54:01.701Z,81.40
2022-08-07T00:55:04.771Z,81.50
2022-08-07T00:56:04.039Z,81.60
2022-08-07T00:57:02.047Z,81.60
2022-08-07T00:58:01.835Z,81.74
2022-08-07T00:59:02.085Z,82.05
2022-08-07T01:00:01.835Z,81.64
2022-08-07T01:01:22.117Z,82.35
2022-08-07T01:02:01.840Z,82.05
2022-08-07T01:03:01.559Z,81.85
2022-08-07T01:04:01.796Z,82.05
2022-08-07T01:05:02.035Z,82.05
2022-08-07T01:06:01.776Z,82.25
2022-08-07T01:07:01.515Z,82.05
2022-08-07T01:08:01.757Z,82.15
2022-08-07T01:09:01.606Z,82.05
2022-08-07T01:10:06.226Z,82.09
2022-08-07T01:12:04.324Z,82.59
2022-08-07T01:12:27.377Z,82.70
2022-08-07T01:13:02.883Z,82.70
2022-08-07T01:14:01.679Z,82.90
2022-08-07T01:15:03.882Z,83.20
2022-08-07T01:16:05.815Z,83.20
2022-08-07T01:17:04.233Z,83.00
2022-08-07T01:18:02.830Z,83.10
2022-08-07T01:19:01.621Z,83.20
2022-08-07T01:20:01.372Z,83.20
2022-08-07T01:21:22.684Z,83.20
2022-08-07T01:22:03.133Z,83.31
2022-08-07T01:23:12.700Z,83.45
2022-08-07T01:24:04.364Z,83.45
2022-08-07T01:25:05.228Z,83.34
2022-08-07T01:26:03.768Z,83.54
2022-08-07T01:27:02.736Z,83.65
2022-08-07T01:28:02.582Z,83.75
2022-08-07T01:29:01.444Z,83.65
2022-08-07T01:30:01.797Z,83.54
2022-08-07T01:31:21.534Z,83.75
2022-08-07T01:32:05.476Z,83.75
2022-08-07T01:33:03.684Z,83.95
2022-08-07T01:34:02.506Z,83.95
2022-08-07T01:35:02.277Z,84.05
2022-08-07T01:36:06.281Z,83.65
2022-08-07T01:37:03.419Z,83.45
2022-08-07T01:38:03.232Z,83.54
2022-08-07T01:39:04.111Z,83.65
2022-08-07T01:40:03.374Z,83.85
2022-08-07T01:41:26.143Z,84.26
2022-08-07T01:42:36.931Z,84.16
2022-08-07T01:43:03.657Z,84.46
2022-08-07T01:44:03.439Z,84.20
2022-08-07T01:45:03.227Z,84.30
2022-08-07T01:46:01.670Z,84.40
2022-08-07T01:48:16.486Z,84.40
2022-08-07T01:48:20.331Z,84.40
2022-08-07T01:49:03.539Z,84.30
2022-08-07T01:50:03.314Z,84.60
2022-08-07T01:52:00.923Z,84.70
2022-08-07T01:52:04.844Z,84.60
2022-08-07T01:53:08.913Z,84.50
2022-08-07T01:54:12.761Z,84.50
2022-08-07T01:55:04.378Z,84.50
2022-08-07T01:56:03.153Z,84.40
2022-08-07T01:57:02.163Z,84.60
2022-08-07T01:58:06.625Z,84.70
2022-08-07T01:59:03.750Z,84.50
2022-08-07T02:00:03.315Z,84.60
2022-08-07T02:01:25.603Z,84.80
2022-08-07T02:02:04.376Z,84.70
2022-08-07T02:03:12.172Z,84.60
2022-08-07T02:04:02.958Z,84.50
2022-08-07T02:05:04.700Z,84.60
2022-08-07T02:06:02.590Z,84.70
2022-08-07T02:07:03.389Z,84.70
2022-08-07T02:08:02.163Z,84.80
2022-08-07T02:09:04.197Z,84.70
2022-08-07T02:10:02.806Z,84.40
2022-08-07T02:11:30.750Z,84.70
2022-08-07T02:12:05.277Z,84.91
2022-08-07T02:13:01.803Z,84.54
2022-08-07T02:14:02.553Z,84.74
2022-08-07T02:15:06.682Z,85.05
2022-08-07T02:16:01.772Z,84.84
2022-08-07T02:17:03.249Z,85.05
2022-08-07T02:18:02.983Z,85.25
2022-08-07T02:19:01.878Z,85.25
2022-08-07T02:20:04.155Z,85.15
2022-08-07T02:21:21.944Z,85.25
2022-08-07T02:22:01.738Z,85.05
2022-08-07T02:23:02.066Z,85.15
2022-08-07T02:24:02.926Z,85.15
2022-08-07T02:25:02.215Z,85.15
2022-08-07T02:26:31.941Z,85.35
2022-08-07T02:27:03.894Z,85.35
2022-08-07T02:28:02.166Z,85.25
2022-08-07T02:29:02.536Z,85.25
2022-08-07T02:30:04.013Z,85.15
2022-08-07T02:31:28.519Z,85.25
2022-08-07T02:32:03.061Z,85.15
2022-08-07T02:33:09.408Z,85.46
2022-08-07T02:34:11.461Z,85.46
2022-08-07T02:35:03.839Z,85.46
2022-08-07T02:36:29.323Z,85.60
2022-08-07T02:37:01.477Z,85.55
2022-08-07T02:38:03.013Z,85.39
2022-08-07T02:39:09.179Z,85.60
2022-08-07T02:40:31.061Z,85.49
2022-08-07T02:41:22.108Z,85.49
2022-08-07T02:42:01.965Z,85.49
2022-08-07T02:43:01.736Z,85.60
2022-08-07T02:44:03.526Z,85.70
2022-08-07T02:45:11.992Z,85.60
2022-08-07T02:46:02.885Z,85.80
2022-08-07T02:47:02.710Z,85.80
2022-08-07T02:48:01.802Z,85.80
2022-08-07T02:49:03.355Z,85.80
2022-08-07T02:50:02.637Z,85.80
2022-08-07T02:51:42.038Z,85.70
2022-08-07T02:52:02.388Z,85.80
2022-08-07T02:53:03.372Z,85.60
2022-08-07T02:54:01.769Z,85.60
2022-08-07T02:55:01.591Z,85.80
2022-08-07T02:56:05.886Z,85.70
2022-08-07T02:57:03.640Z,85.53
2022-08-07T02:58:00.707Z,86.15
2022-08-07T02:59:02.590Z,86.35
2022-08-07T03:00:05.046Z,86.25
2022-08-07T03:01:36.672Z,86.35
2022-08-07T03:02:03.458Z,86.35
2022-08-07T03:03:06.042Z,86.35
2022-08-07T03:04:03.492Z,86.25
2022-08-07T03:05:05.109Z,86.25
2022-08-07T03:06:02.438Z,86.04
2022-08-07T03:07:07.371Z,86.35
2022-08-07T03:08:05.226Z,86.76
2022-08-07T03:09:03.551Z,86.96
2022-08-07T03:10:02.305Z,86.96
2022-08-07T03:11:20.642Z,87.00
2022-08-07T03:12:02.737Z,87.10
2022-08-07T03:13:01.590Z,87.20
2022-08-07T03:14:02.363Z,87.20
2022-08-07T03:15:02.348Z,87.20
2022-08-07T03:16:02.621Z,87.30
2022-08-07T03:17:04.447Z,87.30
2022-08-07T03:18:02.214Z,87.30
2022-08-07T03:19:01.491Z,87.41
2022-08-07T03:20:02.367Z,87.61
2022-08-07T03:21:20.175Z,87.51
2022-08-07T03:22:00.502Z,87.51
2022-08-07T03:23:02.406Z,87.20
2022-08-07T03:24:19.629Z,86.69
2022-08-07T03:25:02.492Z,86.59
2022-08-07T03:26:02.267Z,86.80
2022-08-07T03:27:02.102Z,87.20
2022-08-07T03:28:09.797Z,87.51
2022-08-07T03:29:02.491Z,87.30
2022-08-07T03:30:03.799Z,87.41
2022-08-07T03:31:24.550Z,87.71
2022-08-07T03:32:02.510Z,87.81
2022-08-07T03:33:02.266Z,87.71
2022-08-07T03:34:02.028Z,87.65
2022-08-07T03:35:17.535Z,87.65
2022-08-07T03:36:02.483Z,87.55
2022-08-07T03:37:01.178Z,87.45
2022-08-07T03:38:02.361Z,87.45
2022-08-07T03:39:05.445Z,87.45
2022-08-07T03:40:14.897Z,87.75
2022-08-07T03:41:21.327Z,87.65
2022-08-07T03:42:02.530Z,87.65
2022-08-07T03:43:02.370Z,87.55
2022-08-07T03:44:02.142Z,87.55
2022-08-07T03:45:01.920Z,87.65
2022-08-07T03:46:02.802Z,87.75
2022-08-07T03:47:13.029Z,87.75
2022-08-07T03:48:02.341Z,87.75
2022-08-07T03:49:03.418Z,87.75
2022-08-07T03:50:00.123Z,88.26
2022-08-07T03:51:20.741Z,88.26
2022-08-07T03:52:02.155Z,88.26
2022-08-07T03:53:01.731Z,88.16
2022-08-07T03:54:33.156Z,87.96
2022-08-07T03:55:06.518Z,87.96
2022-08-07T03:56:04.062Z,88.06
2022-08-07T03:57:07.235Z,88.20
2022-08-07T03:58:34.772Z,88.06
2022-08-07T03:59:13.155Z,88.00
2022-08-07T04:00:04.079Z,88.10
2022-08-07T04:01:22.410Z,87.90
2022-08-07T04:02:02.039Z,87.79
2022-08-07T04:03:03.878Z,87.79
2022-08-07T04:04:04.832Z,88.00
2022-08-07T04:05:00.889Z,88.31
2022-08-07T04:06:00.089Z,88.40
2022-08-07T04:07:02.023Z,88.71
2022-08-07T04:08:02.046Z,88.40
2022-08-07T04:09:01.863Z,88.31
2022-08-07T04:10:02.905Z,88.40
2022-08-07T04:12:25.107Z,88.31
2022-08-07T04:12:26.431Z,88.20
2022-08-07T04:13:02.781Z,88.20
2022-08-07T04:14:10.207Z,88.20
2022-08-07T04:15:02.058Z,88.40
2022-08-07T04:16:01.827Z,88.51
2022-08-07T04:17:03.137Z,88.31
2022-08-07T04:18:31.410Z,88.10
2022-08-07T04:19:04.061Z,88.10
2022-08-07T04:20:01.916Z,88.20
2022-08-07T04:21:19.769Z,88.51
2022-08-07T04:22:08.694Z,88.61
2022-08-07T04:23:06.289Z,88.71
2022-08-07T04:24:07.573Z,88.61
2022-08-07T04:25:02.768Z,88.61
2022-08-07T04:26:00.285Z,88.40
2022-08-07T04:27:01.836Z,88.20
2022-08-07T04:28:01.709Z,88.40
2022-08-07T04:29:00.881Z,88.51
2022-08-07T04:30:04.911Z,88.61
2022-08-07T04:31:20.476Z,88.71
2022-08-07T04:32:10.040Z,88.81
2022-08-07T04:33:01.781Z,88.81
2022-08-07T04:34:02.621Z,88.92
2022-08-07T04:35:01.409Z,88.81
2022-08-07T04:36:02.271Z,88.71
2022-08-07T04:36:59.624Z,88.92
2022-08-07T04:38:06.517Z,88.71
2022-08-07T04:39:00.124Z,88.61
2022-08-07T04:40:00.549Z,88.81
2022-08-07T04:41:19.409Z,88.92
2022-08-07T04:41:59.972Z,88.92
2022-08-07T04:43:03.366Z,88.81
2022-08-07T04:44:12.056Z,88.61
2022-08-07T04:45:02.912Z,88.71
2022-08-07T04:46:02.363Z,89.01
2022-08-07T04:47:08.120Z,88.98
2022-08-07T04:48:10.584Z,88.98
2022-08-07T04:48:59.884Z,89.07
2022-08-07T04:50:04.575Z,88.98
2022-08-07T04:51:19.747Z,88.77
2022-08-07T04:52:02.541Z,88.77
2022-08-07T04:53:03.139Z,88.87
2022-08-07T04:54:05.407Z,88.87
2022-08-07T04:55:02.378Z,88.87
2022-08-07T04:58:10.080Z,88.87
2022-08-07T04:58:11.333Z,89.18
2022-08-07T04:58:14.875Z,89.18
2022-08-07T05:00:09.632Z,89.14
2022-08-07T05:01:20.388Z,88.98
2022-08-07T05:01:59.989Z,88.93
2022-08-07T05:03:00.342Z,88.83
2022-08-07T05:04:07.658Z,88.73
2022-08-07T05:04:59.969Z,88.93
2022-08-07T05:06:01.280Z,89.14
2022-08-07T05:07:00.475Z,89.03
2022-08-07T05:08:00.094Z,89.03
2022-08-07T05:09:02.538Z,89.14
2022-08-07T05:10:01.154Z,89.24
2022-08-07T05:11:24.379Z,89.14
2022-08-07T05:12:02.538Z,89.24
2022-08-07T05:14:44.551Z,89.34
2022-08-07T05:14:55.031Z,89.44
2022-08-07T05:15:03.494Z,89.54
2022-08-07T05:16:04.568Z,89.54
2022-08-07T05:17:00.913Z,89.54
2022-08-07T05:18:08.784Z,89.64
2022-08-07T05:19:00.963Z,89.64
2022-08-07T05:20:01.206Z,89.75
2022-08-07T05:22:00.473Z,89.50
2022-08-07T05:22:01.562Z,89.40
2022-08-07T05:23:01.201Z,89.30
2022-08-07T05:24:00.951Z,89.20
2022-08-07T05:25:00.415Z,89.20
2022-08-07T05:26:13.491Z,89.09
2022-08-07T05:26:59.938Z,89.09
2022-08-07T05:28:15.914Z,89.00
2022-08-07T05:29:00.009Z,88.85
2022-08-07T05:30:01.035Z,88.85
2022-08-07T05:31:18.854Z,88.75
2022-08-07T05:32:01.046Z,88.65
2022-08-07T05:32:59.560Z,88.65
2022-08-07T05:34:05.589Z,88.54
2022-08-07T05:35:02.206Z,88.44
2022-08-07T05:36:01.128Z,88.34
2022-08-07T05:36:59.937Z,87.99
2022-08-07T05:38:08.359Z,87.89
2022-08-07T05:40:05.948Z,87.69
2022-08-07T05:40:13.850Z,87.79
2022-08-07T05:41:21.966Z,87.89
2022-08-07T05:42:01.751Z,87.89
2022-08-07T05:42:59.853Z,87.89
2022-08-07T05:44:12.298Z,87.75
2022-08-07T05:45:14.370Z,87.85
2022-08-07T05:45:59.989Z,87.65
2022-08-07T05:47:00.264Z,87.65
2022-08-07T05:48:02.733Z,87.65
2022-08-07T05:48:59.874Z,87.65
2022-08-07T05:50:00.670Z,87.65
2022-08-07T05:51:18.981Z,87.10
2022-08-07T05:52:00.671Z,87.20
2022-08-07T05:53:00.950Z,86.90
2022-08-07T05:54:13.382Z,86.69
2022-08-07T05:55:10.347Z,86.59
2022-08-07T05:56:03.700Z,86.08
2022-08-07T05:57:01.711Z,85.94
2022-08-07T05:58:00.483Z,85.94
2022-08-07T05:59:00.733Z,85.64
2022-08-07T06:00:01.172Z,85.53
2022-08-07T06:01:18.850Z,85.33
2022-08-07T06:01:59.935Z,84.93
2022-08-07T06:03:00.797Z,85.19
2022-08-07T06:04:01.296Z,85.19
2022-08-07T06:05:00.713Z,84.99
2022-08-07T06:06:00.563Z,84.69
2022-08-07T06:07:03.444Z,84.04
2022-08-07T06:08:05.314Z,84.44
2022-08-07T06:08:59.807Z,84.14
2022-08-07T06:10:05.598Z,83.94
2022-08-07T06:11:19.523Z,83.63
2022-08-07T06:12:00.718Z,83.33
2022-08-07T06:12:59.490Z,82.58
2022-08-07T06:14:12.888Z,82.48
2022-08-07T06:15:05.627Z,82.89
2022-08-07T06:16:01.330Z,82.75
2022-08-07T06:17:00.603Z,82.24
2022-08-07T06:18:00.362Z,81.39
2022-08-07T06:18:59.129Z,81.49
2022-08-07T06:20:04.215Z,81.18
2022-08-07T06:22:14.542Z,80.64
2022-08-07T06:22:15.646Z,80.94
2022-08-07T06:23:02.341Z,80.20
2022-08-07T06:24:37.989Z,79.39
2022-08-07T06:25:01.598Z,79.75
2022-08-07T06:26:00.517Z,79.05
2022-08-07T06:27:00.284Z,79.75
2022-08-07T06:28:01.990Z,78.10
2022-08-07T06:29:01.137Z,78.10
2022-08-07T06:29:59.620Z,77.66
2022-08-07T06:31:18.440Z,77.22
2022-08-07T06:32:00.160Z,77.73
2022-08-07T06:33:00.420Z,77.53
2022-08-07T06:34:00.194Z,76.58
2022-08-07T06:35:00.461Z,75.47
2022-08-07T06:36:12.158Z,75.84
2022-08-07T06:37:02.714Z,75.63
2022-08-07T06:38:00.351Z,75.80
2022-08-07T06:40:15.907Z,74.99
2022-08-07T06:40:17.019Z,74.69
2022-08-07T06:41:29.337Z,74.35
2022-08-07T06:42:03.281Z,74.26
2022-08-07T06:43:00.241Z,73.52
2022-08-07T06:44:06.568Z,73.11
2022-08-07T06:44:59.361Z,72.67
2022-08-07T06:46:00.932Z,72.47
2022-08-07T06:47:10.577Z,72.17
2022-08-07T06:48:00.017Z,71.53
2022-08-07T06:49:00.180Z,71.33
2022-08-07T06:49:59.049Z,70.73
2022-08-07T06:51:31.157Z,70.83
2022-08-07T06:52:07.478Z,70.43
2022-08-07T06:52:59.938Z,70.63
2022-08-07T06:55:28.350Z,70.19
2022-08-07T06:55:33.157Z,70.89
2022-08-07T06:56:01.995Z,70.26
2022-08-07T06:56:59.991Z,69.76
2022-08-07T06:57:59.499Z,69.76
2022-08-07T07:00:12.291Z,69.32
2022-08-07T07:00:13.244Z,69.32
2022-08-07T07:01:19.129Z,68.88
2022-08-07T07:01:59.288Z,68.18
2022-08-07T07:03:01.135Z,67.58
2022-08-07T07:04:08.259Z,67.55
2022-08-07T07:04:59.932Z,67.85
2022-08-07T07:06:03.252Z,66.61
2022-08-07T07:07:01.889Z,66.21
2022-08-07T07:08:06.347Z,66.41
2022-08-07T07:08:59.853Z,66.78
2022-08-07T07:10:00.010Z,66.68
2022-08-07T07:12:06.848Z,64.15
2022-08-07T07:12:10.634Z,64.34
2022-08-07T07:12:58.164Z,64.75
2022-08-07T07:14:02.512Z,64.34
2022-08-07T07:14:58.185Z,64.62
2022-08-07T07:15:57.907Z,64.72
2022-08-07T07:16:57.636Z,64.69
2022-08-07T07:17:58.065Z,64.45
2022-08-07T07:18:57.633Z,64.15
2022-08-07T07:19:59.143Z,62.82
2022-08-07T07:21:19.339Z,61.62
2022-08-07T07:22:12.242Z,61.12
2022-08-07T07:24:08.870Z,60.99
2022-08-07T07:24:08.993Z,61.59
2022-08-07T07:25:03.070Z,60.89
2022-08-07T07:26:35.720Z,60.59
2022-08-07T07:26:59.030Z,60.27
2022-08-07T07:28:02.771Z,60.96
2022-08-07T07:29:40.117Z,61.13
2022-08-07T07:30:09.103Z,60.80
2022-08-07T07:31:21.422Z,60.11
2022-08-07T07:31:57.531Z,59.68
2022-08-07T07:32:57.760Z,59.88
2022-08-07T07:33:57.532Z,59.05
2022-08-07T07:34:57.753Z,58.55
2022-08-07T07:36:05.503Z,58.15
2022-08-07T07:36:57.943Z,58.62
2022-08-07T07:38:02.710Z,58.42
2022-08-07T07:38:58.468Z,57.60
2022-08-07T07:39:57.714Z,56.70
2022-08-07T07:41:17.461Z,56.01
2022-08-07T07:42:12.879Z,55.71
2022-08-07T07:42:57.856Z,55.71
2022-08-07T07:44:16.775Z,55.61
2022-08-07T07:44:58.347Z,54.98
2022-08-07T07:46:36.618Z,54.81
2022-08-07T07:47:13.496Z,54.79
2022-08-07T07:47:57.794Z,55.51
2022-08-07T07:49:08.797Z,56.27
2022-08-07T07:50:34.880Z,55.78
2022-08-07T07:51:18.528Z,55.55
2022-08-07T07:51:58.165Z,53.96
2022-08-07T07:52:57.538Z,53.27
2022-08-07T07:53:57.288Z,53.94
2022-08-07T07:54:57.550Z,53.74
2022-08-07T07:56:00.521Z,52.04
2022-08-07T07:56:57.642Z,52.42
2022-08-07T07:57:58.434Z,52.22
2022-08-07T07:58:57.540Z,53.21
2022-08-07T07:59:57.268Z,52.89
2022-08-07T08:02:01.635Z,52.37
2022-08-07T08:02:05.091Z,53.36
2022-08-07T08:03:04.656Z,51.35
2022-08-07T08:04:11.018Z,52.64
2022-08-07T08:05:00.344Z,51.62
2022-08-07T08:05:57.171Z,49.54
2022-08-07T08:07:02.877Z,49.71
2022-08-07T08:08:00.934Z,49.21
2022-08-07T08:08:57.425Z,48.92
2022-08-07T08:10:04.908Z,48.52
2022-08-07T08:11:59.492Z,49.88
2022-08-07T08:12:03.006Z,49.39
2022-08-07T08:12:59.965Z,48.30
2022-08-07T08:13:57.118Z,46.91
2022-08-07T08:14:57.367Z,46.71
2022-08-07T08:15:58.144Z,46.81
2022-08-07T08:16:57.340Z,45.72
2022-08-07T08:17:58.767Z,46.42
2022-08-07T08:18:58.274Z,47.11
2022-08-07T08:20:22.357Z,46.51
2022-08-07T08:21:19.010Z,47.80
2022-08-07T08:22:03.696Z,47.19
2022-08-07T08:22:58.207Z,47.46
2022-08-07T08:23:57.462Z,47.34
2022-08-07T08:25:18.546Z,47.29
2022-08-07T08:25:57.401Z,45.39
2022-08-07T08:26:57.152Z,44.87
2022-08-07T08:28:01.761Z,44.87
2022-08-07T08:28:58.150Z,43.47
2022-08-07T08:29:56.983Z,43.37
2022-08-07T08:31:30.160Z,43.65
2022-08-07T08:32:17.186Z,43.55
2022-08-07T08:32:58.098Z,44.20
2022-08-07T08:33:57.110Z,44.18
2022-08-07T08:34:57.091Z,43.05
2022-08-07T08:35:57.773Z,41.55
2022-08-07T08:36:57.917Z,41.14
2022-08-07T08:38:01.508Z,40.53
2022-08-07T08:38:58.156Z,40.03
2022-08-07T08:39:58.495Z,40.01
2022-08-07T08:41:18.108Z,39.90
2022-08-07T08:41:59.162Z,39.78
2022-08-07T08:42:57.133Z,38.88
2022-08-07T08:43:59.309Z,38.19
2022-08-07T08:44:57.117Z,37.74
2022-08-07T08:45:59.028Z,38.62
2022-08-07T08:46:57.109Z,39.39
2022-08-07T08:47:56.850Z,39.09
2022-08-07T08:48:57.101Z,38.39
2022-08-07T08:50:04.746Z,39.06
2022-08-07T08:51:26.041Z,38.45
2022-08-07T08:52:13.942Z,38.04
2022-08-07T08:52:57.131Z,37.23
2022-08-07T08:53:56.901Z,37.12
2022-08-07T08:54:56.615Z,36.43
2022-08-07T08:55:58.868Z,35.58
2022-08-07T08:56:56.633Z,36.08
2022-08-07T08:57:56.898Z,36.08
2022-08-07T08:58:56.634Z,36.74
2022-08-07T08:59:57.291Z,36.45
2022-08-07T09:01:18.672Z,35.76
2022-08-07T09:01:59.603Z,35.76
2022-08-07T09:02:57.730Z,35.66
2022-08-07T09:03:57.022Z,36.94
2022-08-07T09:04:56.765Z,35.86
2022-08-07T09:05:56.516Z,36.35
2022-08-07T09:06:56.776Z,35.57
2022-08-07T09:07:58.209Z,35.06
2022-08-07T09:08:56.767Z,34.65
2022-08-07T09:09:57.157Z,35.52
2022-08-07T09:11:24.535Z,35.01
2022-08-07T09:12:08.912Z,34.91
2022-08-07T09:12:57.689Z,34.72
2022-08-07T09:13:56.440Z,34.41
2022-08-07T09:14:58.909Z,34.97
2022-08-07T09:16:24.188Z,35.25
2022-08-07T09:16:56.872Z,34.67
2022-08-07T09:17:59.425Z,34.05
2022-08-07T09:18:58.442Z,33.54
2022-08-07T09:19:56.650Z,32.82
2022-08-07T09:21:57.640Z,32.63
2022-08-07T09:22:09.781Z,32.03
2022-08-07T09:24:33.254Z,30.11
2022-08-07T09:24:34.976Z,31.64
2022-08-07T09:25:00.317Z,30.70
2022-08-07T09:25:57.546Z,31.95
2022-08-07T09:26:57.170Z,30.78
2022-08-07T09:28:00.978Z,30.98
2022-08-07T09:30:03.263Z,30.31
2022-08-07T09:30:05.650Z,30.58
2022-08-07T09:31:19.568Z,31.96
2022-08-07T09:31:56.329Z,32.15
2022-08-07T09:32:56.586Z,31.64
2022-08-07T09:33:57.397Z,31.34
2022-08-07T09:34:56.578Z,30.05
2022-08-07T09:36:04.125Z,30.15
2022-08-07T09:36:57.564Z,30.25
2022-08-07T09:37:56.292Z,30.65
2022-08-07T09:38:56.552Z,30.35
2022-08-07T09:39:57.875Z,30.35
2022-08-07T09:41:18.515Z,29.66
2022-08-07T09:41:59.125Z,29.76
2022-08-07T09:42:56.604Z,30.05
2022-08-07T09:44:05.630Z,29.86
2022-08-07T09:47:27.604Z,30.93
2022-08-07T09:47:51.831Z,30.05
2022-08-07T09:47:52.607Z,29.85
2022-08-07T09:48:02.398Z,29.85
2022-08-07T09:50:02.360Z,28.18
2022-08-07T09:50:02.458Z,28.57
2022-08-07T09:52:15.551Z,29.46
2022-08-07T09:52:15.973Z,28.96
2022-08-07T09:52:56.507Z,28.50
2022-08-07T09:54:00.611Z,29.38
2022-08-07T09:54:57.003Z,30.74
2022-08-07T09:56:04.703Z,29.38
2022-08-07T09:56:57.509Z,29.94
2022-08-07T09:57:56.246Z,29.96
2022-08-07T09:58:56.000Z,28.89
2022-08-07T10:00:00.694Z,29.57
2022-08-07T10:01:51.843Z,29.57
2022-08-07T10:01:56.416Z,30.52
2022-08-07T10:02:56.566Z,28.97
2022-08-07T10:04:05.572Z,28.49
2022-08-07T10:04:57.447Z,28.39
2022-08-07T10:06:00.052Z,28.96
2022-08-07T10:06:57.644Z,29.52
2022-08-07T10:07:55.937Z,28.61
2022-08-07T10:08:56.136Z,27.08
2022-08-07T10:10:00.217Z,27.94
2022-08-07T10:12:01.395Z,28.29
2022-08-07T10:12:01.518Z,29.10
2022-08-07T10:12:57.071Z,27.40
2022-08-07T10:14:01.735Z,27.00
2022-08-07T10:14:57.036Z,26.70
2022-08-07T10:15:55.773Z,26.89
2022-08-07T10:16:56.039Z,26.40
2022-08-07T10:18:01.494Z,26.50
2022-08-07T10:18:57.015Z,25.24
2022-08-07T10:19:55.768Z,25.83
2022-08-07T10:21:50.558Z,25.74
2022-08-07T10:22:15.384Z,25.85
2022-08-07T10:22:56.199Z,27.22
2022-08-07T10:24:04.877Z,28.09
2022-08-07T10:24:57.410Z,27.24
2022-08-07T10:25:55.972Z,27.04
2022-08-07T10:26:55.715Z,26.56
2022-08-07T10:27:56.142Z,26.86
2022-08-07T10:28:55.706Z,27.64
2022-08-07T10:29:55.977Z,27.33
2022-08-07T10:31:15.719Z,27.62
2022-08-07T10:32:02.433Z,27.24
2022-08-07T10:33:00.051Z,26.17
2022-08-07T10:34:06.136Z,26.27
2022-08-07T10:34:56.088Z,27.04
2022-08-07T10:36:05.147Z,26.67
2022-08-07T10:36:56.828Z,26.89
2022-08-07T10:38:15.547Z,27.87
2022-08-07T10:38:56.076Z,27.29
2022-08-07T10:40:03.493Z,27.78
2022-08-07T10:41:54.687Z,28.94
2022-08-07T10:42:01.665Z,27.76
2022-08-07T10:42:56.791Z,27.68
2022-08-07T10:44:02.293Z,27.29
2022-08-07T10:44:56.784Z,28.64
2022-08-07T10:45:58.190Z,28.91
2022-08-07T10:46:55.774Z,27.54
2022-08-07T10:47:59.864Z,28.11
2022-08-07T10:48:56.790Z,27.22
2022-08-07T10:49:55.569Z,27.60
2022-08-07T10:51:16.942Z,27.09
2022-08-07T10:52:01.926Z,26.59
2022-08-07T10:52:58.634Z,26.40
2022-08-07T10:54:00.237Z,25.92
2022-08-07T10:55:01.468Z,26.29
2022-08-07T10:55:58.422Z,25.79
2022-08-07T10:56:55.738Z,26.28
2022-08-07T10:57:56.284Z,25.89
2022-08-07T10:58:59.456Z,26.32
2022-08-07T10:59:55.499Z,26.68
2022-08-07T11:01:16.314Z,26.76
2022-08-07T11:02:04.765Z,27.14
2022-08-07T11:03:04.785Z,27.42
2022-08-07T11:04:23.263Z,26.42
2022-08-07T11:04:58.811Z,26.90
2022-08-07T11:05:55.620Z,25.93
2022-08-07T11:06:55.333Z,26.21
2022-08-07T11:07:59.589Z,25.92
2022-08-07T11:08:58.270Z,25.34
2022-08-07T11:10:10.363Z,25.81
2022-08-07T11:12:32.011Z,24.35
2022-08-07T11:12:36.513Z,25.81
2022-08-07T11:14:42.665Z,25.43
2022-08-07T11:14:57.400Z,25.24
2022-08-07T11:15:37.250Z,25.34
2022-08-07T11:16:36.016Z,25.62
2022-08-07T11:17:42.749Z,25.61
2022-08-07T11:18:37.004Z,25.51
2022-08-07T11:20:52.755Z,25.61
2022-08-07T11:21:00.441Z,25.15
2022-08-07T11:22:32.502Z,26.15
2022-08-07T11:23:01.969Z,26.67
2022-08-07T11:24:01.267Z,26.14
2022-08-07T11:25:04.310Z,27.16
2022-08-07T11:26:06.420Z,28.09
2022-08-07T11:27:02.119Z,29.50
2022-08-07T11:28:03.990Z,30.59
2022-08-07T11:29:00.174Z,32.27
2022-08-07T11:30:17.585Z,32.68
2022-08-07T11:31:02.198Z,32.58
2022-08-07T11:32:25.501Z,31.62
2022-08-07T11:33:01.709Z,33.09
2022-08-07T11:34:01.032Z,33.00
2022-08-07T11:35:00.799Z,33.00
2022-08-07T11:36:01.581Z,33.50
2022-08-07T11:37:00.642Z,33.41
2022-08-07T11:38:10.184Z,33.02
2022-08-07T11:39:01.963Z,32.63
2022-08-07T11:40:00.262Z,32.82
2022-08-07T11:41:02.022Z,32.94
2022-08-07T11:42:19.217Z,34.11
2022-08-07T11:43:01.776Z,34.31
2022-08-07T11:44:12.740Z,33.43
2022-08-07T11:45:01.128Z,33.64
2022-08-07T11:46:00.940Z,34.52
2022-08-07T11:47:00.741Z,33.94
2022-08-07T11:48:03.382Z,34.05
2022-08-07T11:49:49.986Z,33.36
2022-08-07T11:50:32.436Z,33.46
2022-08-07T11:51:00.336Z,31.90
2022-08-07T11:52:18.710Z,32.45
2022-08-07T11:53:01.832Z,34.03
2022-08-07T11:54:02.123Z,34.25
2022-08-07T11:55:01.274Z,34.54
2022-08-07T11:56:09.137Z,35.92
2022-08-07T11:57:00.611Z,36.22
2022-08-07T11:58:01.704Z,36.41
2022-08-07T11:59:00.666Z,36.00
2022-08-07T12:00:11.670Z,35.61
2022-08-07T12:01:04.248Z,35.00
2022-08-07T12:02:20.916Z,34.80
2022-08-07T12:03:01.286Z,34.80
2022-08-07T12:04:00.618Z,34.82
2022-08-07T12:04:58.824Z,35.61
2022-08-07T12:05:59.479Z,35.41
2022-08-07T12:07:02.403Z,35.13
2022-08-07T12:08:04.113Z,35.13
2022-08-07T12:08:58.796Z,35.43
2022-08-07T12:09:58.546Z,35.82
2022-08-07T12:11:08.414Z,36.32
2022-08-07T12:12:21.582Z,37.49
2022-08-07T12:12:58.870Z,37.32
2022-08-07T12:13:58.616Z,37.32
2022-08-07T12:15:00.604Z,36.25
2022-08-07T12:16:06.875Z,35.48
2022-08-07T12:16:59.459Z,35.68
2022-08-07T12:18:03.164Z,36.57
2022-08-07T12:18:59.360Z,37.87
2022-08-07T12:20:04.853Z,37.17
2022-08-07T12:20:59.342Z,38.35
2022-08-07T12:22:37.096Z,36.99
2022-08-07T12:22:59.347Z,36.91
2022-08-07T12:24:07.673Z,36.12
2022-08-07T12:25:02.610Z,37.03
2022-08-07T12:26:21.763Z,38.43
2022-08-07T12:26:59.329Z,37.74
2022-08-07T12:28:09.546Z,37.56
2022-08-07T12:29:00.632Z,38.55
2022-08-07T12:29:58.546Z,39.32
2022-08-07T12:30:58.296Z,39.22
2022-08-07T12:32:20.587Z,38.43
2022-08-07T12:32:58.362Z,38.63
2022-08-07T12:34:01.989Z,38.82
2022-08-07T12:34:59.371Z,37.94
2022-08-07T12:36:02.376Z,39.03
2022-08-07T12:36:58.742Z,38.13
2022-08-07T12:38:09.661Z,36.77
2022-08-07T12:38:59.465Z,37.48
2022-08-07T12:39:58.161Z,38.49
2022-08-07T12:40:58.377Z,39.77
2022-08-07T12:42:22.870Z,38.21
2022-08-07T12:42:59.379Z,39.81
2022-08-07T12:44:01.460Z,38.92
2022-08-07T12:44:59.387Z,40.12
2022-08-07T12:45:58.132Z,40.23
2022-08-07T12:46:58.400Z,40.52
2022-08-07T12:47:58.147Z,41.04
2022-08-07T12:48:58.388Z,41.52
2022-08-07T12:50:04.687Z,40.42
2022-08-07T12:50:59.382Z,39.63
2022-08-07T12:52:21.162Z,40.31
2022-08-07T12:52:58.405Z,40.90
2022-08-07T12:54:03.418Z,40.50